createdAt,value
2022-12-25T00:01:20.666Z,12.23
2022-12-25T00:03:48.735Z,11.80
2022-12-25T00:06:17.090Z,9.80
2022-12-25T00:08:44.351Z,10.70
2022-12-25T00:11:18.417Z,10.77
2022-12-25T00:13:48.641Z,10.83
2022-12-25T00:16:25.154Z,10.50
2022-12-25T00:18:56.933Z,11.07
2022-12-25T00:21:26.369Z,11.10
2022-12-25T00:23:58.323Z,10.27
2022-12-25T00:26:27.152Z,10.70
2022-12-25T00:28:58.673Z,11.03
2022-12-25T00:31:27.012Z,10.77
2022-12-25T00:33:56.666Z,9.30
2022-12-25T00:36:28.513Z,8.83
2022-12-25T00:38:55.633Z,8.53
2022-12-25T00:41:42.930Z,8.93
2022-12-25T00:44:15.987Z,8.07
2022-12-25T00:46:43.600Z,8.37
2022-12-25T00:49:11.935Z,7.90
2022-12-25T00:51:39.411Z,7.57
2022-12-25T00:54:09.265Z,6.80
2022-12-25T00:56:39.968Z,7.07
2022-12-25T00:59:09.930Z,7.47
2022-12-25T01:01:37.711Z,7.40
2022-12-25T01:04:05.483Z,7.30
2022-12-25T01:06:33.131Z,7.27
2022-12-25T01:09:18.838Z,8.10
2022-12-25T01:11:46.374Z,7.43
2022-12-25T01:14:13.619Z,7.30
2022-12-25T01:16:43.083Z,7.47
2022-12-25T01:19:12.673Z,8.43
2022-12-25T01:21:39.902Z,7.47
2022-12-25T01:24:07.564Z,7.13
2022-12-25T01:26:39.115Z,8.60
2022-12-25T01:29:06.179Z,8.07
2022-12-25T01:31:35.685Z,8.07
2022-12-25T01:34:02.622Z,7.80
2022-12-25T01:36:29.892Z,8.00
2022-12-25T01:38:57.126Z,8.00
2022-12-25T01:41:25.295Z,8.33
2022-12-25T01:44:14.370Z,9.13
2022-12-25T01:46:44.596Z,8.30
2022-12-25T01:49:17.719Z,7.70
2022-12-25T01:51:52.912Z,8.10
2022-12-25T01:54:28.339Z,8.07
2022-12-25T01:57:02.785Z,9.20
2022-12-25T01:59:30.645Z,9.53
2022-12-25T02:01:58.618Z,9.40
2022-12-25T02:04:39.613Z,9.00
2022-12-25T02:07:20.160Z,9.27
2022-12-25T02:09:48.884Z,9.60
2022-12-25T02:12:30.666Z,10.73
2022-12-25T02:15:05.844Z,11.00
2022-12-25T02:18:10.530Z,10.77
2022-12-25T02:20:58.055Z,11.30
2022-12-25T02:23:55.372Z,10.80
2022-12-25T02:27:04.285Z,10.90
2022-12-25T02:29:53.419Z,10.90
2022-12-25T02:32:48.017Z,10.40
2022-12-25T02:35:28.849Z,11.50
2022-12-25T02:38:05.907Z,11.00
2022-12-25T02:40:44.088Z,10.30
2022-12-25T02:43:39.909Z,11.17
2022-12-25T02:46:35.446Z,10.80
2022-12-25T02:49:42.574Z,11.60
2022-12-25T02:52:35.056Z,12.30
2022-12-25T02:55:38.385Z,12.67
2022-12-25T02:58:29.160Z,16.33
2022-12-25T03:01:26.337Z,14.87
2022-12-25T03:04:15.760Z,16.73
2022-12-25T03:07:04.817Z,17.27
2022-12-25T03:09:59.161Z,22.97
2022-12-25T03:12:49.721Z,22.70
2022-12-25T03:15:38.043Z,20.40
2022-12-25T03:18:14.525Z,22.73
2022-12-25T03:21:00.336Z,20.40
2022-12-25T03:23:56.458Z,21.97
2022-12-25T03:26:44.162Z,19.40
2022-12-25T03:29:32.136Z,18.87
2022-12-25T03:32:44.020Z,17.50
2022-12-25T03:35:23.237Z,16.93
2022-12-25T03:38:41.989Z,14.53
2022-12-25T03:42:01.419Z,13.83
2022-12-25T03:45:24.537Z,13.57
2022-12-25T03:47:53.730Z,12.70
2022-12-25T03:50:42.475Z,13.20
2022-12-25T03:53:46.495Z,13.70
2022-12-25T03:56:36.284Z,14.03
2022-12-25T03:59:24.473Z,12.73
2022-12-25T04:02:10.622Z,13.57
2022-12-25T04:04:59.058Z,12.63
2022-12-25T04:07:46.698Z,13.00
2022-12-25T04:10:37.226Z,12.43
2022-12-25T04:13:22.712Z,12.10
2022-12-25T04:16:12.637Z,12.90
2022-12-25T04:18:59.067Z,13.83
2022-12-25T04:21:44.894Z,14.53
2022-12-25T04:24:30.757Z,11.80
2022-12-25T04:27:16.551Z,13.03
2022-12-25T04:30:02.337Z,12.10
2022-12-25T04:32:48.341Z,11.80
2022-12-25T04:35:34.443Z,13.63
2022-12-25T04:38:01.846Z,12.53
2022-12-25T04:40:28.845Z,13.40
2022-12-25T04:42:56.093Z,12.87
2022-12-25T04:45:25.591Z,13.30
2022-12-25T04:47:52.589Z,12.20
2022-12-25T04:50:22.258Z,14.40
2022-12-25T04:52:49.245Z,13.10
2022-12-25T04:55:16.567Z,14.17
2022-12-25T04:57:43.550Z,13.37
2022-12-25T05:00:13.951Z,14.23
2022-12-25T05:02:41.023Z,13.07
2022-12-25T05:05:08.759Z,14.27
2022-12-25T05:07:35.885Z,13.30
2022-12-25T05:10:03.466Z,14.70
2022-12-25T05:12:30.580Z,13.37
2022-12-25T05:15:00.012Z,13.67
2022-12-25T05:17:27.247Z,12.80
2022-12-25T05:19:54.274Z,14.13
2022-12-25T05:22:21.286Z,12.80
2022-12-25T05:24:48.137Z,13.77
2022-12-25T05:27:15.973Z,12.20
2022-12-25T05:29:42.987Z,13.27
2022-12-25T05:32:10.136Z,13.20
2022-12-25T05:34:37.155Z,12.00
2022-12-25T05:37:04.211Z,12.70
2022-12-25T05:39:31.410Z,12.80
2022-12-25T05:42:03.079Z,12.90
2022-12-25T05:44:30.069Z,12.67
2022-12-25T05:46:57.119Z,11.80
2022-12-25T05:49:24.382Z,13.00
2022-12-25T05:51:51.473Z,11.67
2022-12-25T05:54:18.521Z,12.10
2022-12-25T05:56:45.465Z,11.53
2022-12-25T05:59:12.647Z,11.43
2022-12-25T06:01:42.796Z,12.37
2022-12-25T06:04:12.721Z,12.00
2022-12-25T06:06:44.674Z,11.70
2022-12-25T06:09:13.519Z,12.63
2022-12-25T06:11:41.173Z,11.23
2022-12-25T06:14:14.382Z,12.40
2022-12-25T06:16:43.748Z,11.27
2022-12-25T06:19:10.754Z,12.47
2022-12-25T06:21:38.083Z,12.80
2022-12-25T06:24:05.390Z,12.50
2022-12-25T06:26:32.766Z,12.33
2022-12-25T06:28:59.939Z,10.53
2022-12-25T06:31:26.911Z,13.10
2022-12-25T06:33:56.124Z,11.20
2022-12-25T06:36:27.725Z,11.67
2022-12-25T06:39:01.166Z,10.97
2022-12-25T06:41:30.884Z,11.10
2022-12-25T06:44:00.572Z,11.57
2022-12-25T06:46:30.696Z,11.57
2022-12-25T06:48:59.278Z,11.27
2022-12-25T06:51:29.522Z,11.83
2022-12-25T06:53:59.812Z,11.53
2022-12-25T06:56:28.617Z,10.70
2022-12-25T06:58:59.171Z,10.63
2022-12-25T07:01:46.343Z,10.47
2022-12-25T07:04:21.706Z,11.70
2022-12-25T07:06:51.245Z,12.03
2022-12-25T07:09:21.828Z,12.10
2022-12-25T07:11:51.729Z,9.43
2022-12-25T07:14:24.504Z,10.40
2022-12-25T07:16:52.089Z,11.20
2022-12-25T07:19:19.470Z,11.53
2022-12-25T07:21:47.231Z,10.77
2022-12-25T07:24:23.174Z,10.70
2022-12-25T07:26:51.575Z,11.60
2022-12-25T07:29:19.958Z,11.40
2022-12-25T07:31:47.756Z,9.93
2022-12-25T07:34:22.555Z,11.93
2022-12-25T07:36:49.978Z,12.30
2022-12-25T07:39:17.005Z,10.77
2022-12-25T07:41:44.731Z,10.30
2022-12-25T07:44:11.726Z,12.07
2022-12-25T07:46:38.736Z,11.30
2022-12-25T07:49:08.395Z,10.40
2022-12-25T07:51:35.557Z,9.83
2022-12-25T07:54:02.613Z,10.40
2022-12-25T07:56:29.721Z,10.67
2022-12-25T07:59:00.037Z,12.23
2022-12-25T08:01:28.284Z,10.07
2022-12-25T08:04:01.060Z,11.07
2022-12-25T08:06:33.792Z,9.57
2022-12-25T08:09:13.907Z,10.93
2022-12-25T08:11:47.902Z,10.77
2022-12-25T08:14:17.455Z,11.63
2022-12-25T08:16:44.635Z,10.13
2022-12-25T08:19:14.460Z,10.27
2022-12-25T08:21:43.449Z,10.60
2022-12-25T08:24:10.875Z,10.20
2022-12-25T08:26:38.497Z,9.97
2022-12-25T08:29:05.392Z,10.33
2022-12-25T08:31:37.255Z,10.20
2022-12-25T08:34:07.016Z,9.70
2022-12-25T08:36:33.997Z,12.77
2022-12-25T08:39:03.317Z,10.83
2022-12-25T08:41:31.284Z,11.03
2022-12-25T08:44:00.985Z,9.33
2022-12-25T08:46:27.830Z,11.20
2022-12-25T08:48:56.668Z,9.07
2022-12-25T08:51:26.566Z,9.07
2022-12-25T08:53:59.145Z,7.67
2022-12-25T08:56:29.200Z,8.63
2022-12-25T08:58:56.033Z,8.63
2022-12-25T09:01:22.931Z,8.27
2022-12-25T09:03:50.014Z,9.47
2022-12-25T09:06:19.214Z,9.20
2022-12-25T09:08:49.855Z,8.47
2022-12-25T09:11:19.051Z,8.30
2022-12-25T09:13:46.487Z,8.60
2022-12-25T09:16:20.499Z,8.13
2022-12-25T09:18:49.973Z,9.27
2022-12-25T09:21:19.946Z,8.60
2022-12-25T09:23:46.908Z,8.30
2022-12-25T09:26:17.042Z,9.60
2022-12-25T09:28:50.581Z,9.47
2022-12-25T09:31:19.166Z,9.33
2022-12-25T09:33:48.977Z,9.70
2022-12-25T09:36:18.164Z,10.50
2022-12-25T09:38:47.126Z,8.97
2022-12-25T09:41:39.760Z,9.83
2022-12-25T09:44:12.075Z,9.03
2022-12-25T09:46:43.196Z,11.00
2022-12-25T09:49:38.299Z,11.80
2022-12-25T09:52:14.851Z,10.23
2022-12-25T09:54:44.574Z,11.27
2022-12-25T09:57:14.153Z,10.50
2022-12-25T09:59:47.566Z,10.67
2022-12-25T10:02:40.569Z,11.30
2022-12-25T10:05:16.457Z,10.23
2022-12-25T10:08:14.550Z,10.70
2022-12-25T10:10:52.849Z,10.10
2022-12-25T10:14:08.575Z,10.70
2022-12-25T10:17:15.455Z,9.50
2022-12-25T10:20:08.541Z,11.10
2022-12-25T10:22:41.004Z,10.53
2022-12-25T10:25:19.891Z,9.27
2022-12-25T10:27:54.416Z,9.90
2022-12-25T10:30:25.378Z,12.53
2022-12-25T10:32:56.871Z,13.53
2022-12-25T10:35:27.545Z,10.43
2022-12-25T10:38:14.314Z,10.87
2022-12-25T10:41:02.648Z,11.03
2022-12-25T10:43:50.510Z,10.87
2022-12-25T10:46:18.718Z,11.80
2022-12-25T10:49:00.995Z,10.33
2022-12-25T10:51:29.633Z,10.53
2022-12-25T10:53:56.963Z,10.13
2022-12-25T10:56:24.095Z,10.13
2022-12-25T10:58:50.981Z,11.80
2022-12-25T11:01:18.314Z,10.90
2022-12-25T11:03:51.439Z,10.47
2022-12-25T11:06:30.928Z,10.73
2022-12-25T11:09:02.619Z,10.43
2022-12-25T11:11:30.489Z,11.03
2022-12-25T11:14:05.012Z,10.40
2022-12-25T11:16:38.449Z,10.03
2022-12-25T11:19:33.097Z,8.53
2022-12-25T11:22:03.920Z,9.90
2022-12-25T11:24:36.045Z,9.33
2022-12-25T11:27:09.133Z,9.37
2022-12-25T11:29:44.955Z,9.10
2022-12-25T11:32:27.220Z,8.77
2022-12-25T11:34:57.239Z,11.13
2022-12-25T11:37:34.935Z,8.70
2022-12-25T11:40:05.694Z,9.00
2022-12-25T11:42:39.586Z,8.00
2022-12-25T11:45:17.376Z,9.33
2022-12-25T11:48:13.146Z,9.03
2022-12-25T11:50:46.977Z,9.20
2022-12-25T11:53:25.625Z,11.90
2022-12-25T11:56:09.009Z,9.50
2022-12-25T11:58:54.790Z,9.83
2022-12-25T12:02:03.429Z,10.63
2022-12-25T12:04:43.231Z,10.40
2022-12-25T12:07:30.170Z,9.67
2022-12-25T12:10:06.049Z,10.00
2022-12-25T12:13:13.177Z,9.37
2022-12-25T12:15:48.134Z,9.00
2022-12-25T12:18:27.318Z,9.90
2022-12-25T12:21:08.112Z,10.50
2022-12-25T12:23:54.863Z,9.93
2022-12-25T12:26:31.514Z,9.73
2022-12-25T12:29:01.264Z,10.50
2022-12-25T12:31:44.619Z,10.67
2022-12-25T12:34:32.594Z,10.00
2022-12-25T12:37:08.154Z,9.40
2022-12-25T12:39:40.664Z,9.73
2022-12-25T12:42:21.072Z,10.17
2022-12-25T12:44:49.854Z,9.70
2022-12-25T12:47:41.715Z,8.43
2022-12-25T12:50:34.332Z,9.80
2022-12-25T12:53:21.508Z,9.63
2022-12-25T12:55:51.483Z,9.00
2022-12-25T12:58:35.627Z,8.77
2022-12-25T13:01:26.839Z,8.97
2022-12-25T13:03:59.135Z,11.60
2022-12-25T13:06:47.853Z,9.00
2022-12-25T13:09:55.331Z,10.10
2022-12-25T13:12:23.029Z,8.77
2022-12-25T13:14:52.593Z,9.57
2022-12-25T13:17:24.994Z,9.20
2022-12-25T13:20:02.479Z,8.30
2022-12-25T13:22:37.005Z,8.23
2022-12-25T13:25:19.537Z,8.20
2022-12-25T13:27:54.120Z,8.00
2022-12-25T13:30:22.396Z,8.67
2022-12-25T13:32:49.389Z,9.50
2022-12-25T13:35:23.422Z,7.53
2022-12-25T13:37:50.747Z,9.40
2022-12-25T13:40:28.456Z,9.07
2022-12-25T13:43:00.307Z,7.23
2022-12-25T13:45:30.884Z,8.70
2022-12-25T13:48:15.046Z,8.03
2022-12-25T13:50:48.284Z,8.80
2022-12-25T13:53:17.818Z,8.27
2022-12-25T13:55:52.512Z,7.40
2022-12-25T13:58:35.005Z,7.30
2022-12-25T14:01:06.001Z,8.00
2022-12-25T14:03:43.997Z,8.53
2022-12-25T14:06:35.757Z,8.20
2022-12-25T14:09:02.728Z,8.27
2022-12-25T14:11:31.221Z,7.60
2022-12-25T14:14:13.991Z,8.13
2022-12-25T14:16:45.091Z,7.20
2022-12-25T14:19:27.652Z,8.10
2022-12-25T14:22:09.251Z,7.70
2022-12-25T14:24:40.454Z,6.80
2022-12-25T14:27:21.592Z,7.70
2022-12-25T14:29:51.797Z,7.20
2022-12-25T14:32:23.062Z,7.90
2022-12-25T14:34:57.137Z,9.80
2022-12-25T14:37:31.070Z,7.63
2022-12-25T14:40:21.859Z,8.23
2022-12-25T14:43:05.447Z,7.10
2022-12-25T14:45:40.966Z,7.73
2022-12-25T14:48:31.105Z,7.43
2022-12-25T14:51:05.004Z,7.90
2022-12-25T14:53:46.857Z,7.27
2022-12-25T14:56:25.916Z,7.13
2022-12-25T14:58:58.987Z,8.00
2022-12-25T15:01:41.657Z,8.00
2022-12-25T15:04:16.718Z,7.83
2022-12-25T15:07:00.441Z,8.17
2022-12-25T15:09:29.885Z,8.27
2022-12-25T15:11:57.169Z,9.67
2022-12-25T15:14:26.389Z,7.90
2022-12-25T15:16:58.142Z,7.97
2022-12-25T15:19:37.242Z,8.70
2022-12-25T15:22:05.208Z,8.23
2022-12-25T15:24:32.163Z,8.50
2022-12-25T15:27:00.616Z,7.93
2022-12-25T15:30:00.280Z,9.13
2022-12-25T15:32:21.592Z,8.70
2022-12-25T15:34:49.853Z,8.60
2022-12-25T15:37:18.914Z,7.53
2022-12-25T15:39:46.513Z,7.87
2022-12-25T15:42:19.540Z,7.90
2022-12-25T15:44:46.620Z,7.60
2022-12-25T15:47:20.267Z,8.27
2022-12-25T15:49:50.285Z,8.20
2022-12-25T15:52:17.985Z,9.10
2022-12-25T15:54:47.899Z,9.40
2022-12-25T15:57:24.310Z,9.37
2022-12-25T15:59:53.508Z,8.10
2022-12-25T16:02:21.280Z,9.00
2022-12-25T16:04:51.213Z,9.90
2022-12-25T16:07:23.067Z,10.20
2022-12-25T16:09:53.065Z,10.43
2022-12-25T16:12:22.438Z,9.93
2022-12-25T16:14:49.284Z,9.60
2022-12-25T16:17:16.506Z,9.97
2022-12-25T16:19:44.848Z,10.70
2022-12-25T16:22:21.925Z,10.50
2022-12-25T16:24:50.038Z,9.73
2022-12-25T16:27:17.129Z,10.73
2022-12-25T16:29:44.449Z,9.53
2022-12-25T16:32:15.591Z,11.47
2022-12-25T16:34:44.588Z,9.37
2022-12-25T16:37:11.510Z,10.67
2022-12-25T16:39:38.388Z,11.33
2022-12-25T16:42:07.426Z,11.07
2022-12-25T16:44:37.466Z,11.00
2022-12-25T16:47:04.645Z,11.20
2022-12-25T16:49:31.704Z,11.30
2022-12-25T16:51:58.716Z,11.63
2022-12-25T16:54:25.771Z,14.07
2022-12-25T16:56:55.244Z,12.33
2022-12-25T16:59:22.212Z,11.60
2022-12-25T17:01:49.579Z,13.03
2022-12-25T17:04:16.733Z,12.00
2022-12-25T17:06:46.083Z,12.70
2022-12-25T17:09:13.070Z,11.10
2022-12-25T17:11:40.335Z,12.93
2022-12-25T17:14:10.369Z,13.43
2022-12-25T17:16:40.442Z,12.77
2022-12-25T17:19:16.835Z,11.47
2022-12-25T17:21:46.814Z,12.50
2022-12-25T17:24:15.126Z,12.63
2022-12-25T17:26:43.886Z,13.73
2022-12-25T17:29:19.975Z,12.47
2022-12-25T17:31:48.955Z,14.73
2022-12-25T17:34:16.037Z,13.47
2022-12-25T17:36:42.960Z,15.40
2022-12-25T17:39:10.840Z,12.47
2022-12-25T17:41:40.448Z,13.50
2022-12-25T17:44:07.492Z,15.03
2022-12-25T17:46:36.795Z,12.87
2022-12-25T17:49:04.090Z,13.07
2022-12-25T17:51:36.066Z,15.20
2022-12-25T17:54:05.990Z,12.47
2022-12-25T17:56:33.749Z,13.77
2022-12-25T17:59:08.098Z,11.30
2022-12-25T18:01:40.996Z,12.40
2022-12-25T18:04:08.122Z,13.10
2022-12-25T18:06:38.812Z,14.60
2022-12-25T18:09:11.023Z,12.97
2022-12-25T18:11:41.075Z,11.20
2022-12-25T18:14:13.681Z,12.37
2022-12-25T18:16:43.757Z,12.00
2022-12-25T18:19:15.662Z,11.00
2022-12-25T18:21:42.884Z,12.20
2022-12-25T18:24:12.373Z,10.63
2022-12-25T18:26:41.718Z,10.23
2022-12-25T18:29:08.848Z,12.60
2022-12-25T18:31:36.571Z,10.67
2022-12-25T18:34:06.085Z,12.03
2022-12-25T18:36:33.041Z,10.23
2022-12-25T18:39:02.400Z,8.57
2022-12-25T18:41:30.351Z,9.30
2022-12-25T18:43:59.658Z,8.83
2022-12-25T18:46:27.923Z,9.13
2022-12-25T18:48:56.737Z,9.23
2022-12-25T18:51:24.390Z,8.77
2022-12-25T18:53:51.777Z,8.83
2022-12-25T18:56:20.973Z,9.03
2022-12-25T18:58:50.333Z,7.77
2022-12-25T19:01:20.877Z,8.30
2022-12-25T19:03:51.578Z,6.57
2022-12-25T19:06:32.582Z,6.50
2022-12-25T19:09:09.354Z,6.97
2022-12-25T19:11:45.653Z,6.40
2022-12-25T19:14:14.239Z,6.40
2022-12-25T19:16:44.486Z,6.17
2022-12-25T19:19:11.897Z,5.27
2022-12-25T19:21:38.952Z,5.30
2022-12-25T19:24:06.217Z,6.20
2022-12-25T19:26:33.449Z,5.57
2022-12-25T19:29:02.435Z,6.13
2022-12-25T19:31:29.413Z,5.77
2022-12-25T19:33:56.560Z,5.73
2022-12-25T19:36:26.081Z,5.53
2022-12-25T19:38:53.591Z,5.47
2022-12-25T19:41:22.620Z,5.20
2022-12-25T19:43:50.040Z,5.37
2022-12-25T19:46:23.080Z,4.90
2022-12-25T19:48:50.400Z,5.50
2022-12-25T19:51:25.770Z,6.07
2022-12-25T19:53:56.230Z,5.27
2022-12-25T19:56:27.762Z,6.43
2022-12-25T19:59:00.660Z,6.17
2022-12-25T20:01:31.758Z,6.70
2022-12-25T20:04:02.233Z,6.10
2022-12-25T20:06:33.739Z,8.13
2022-12-25T20:09:07.811Z,8.43
2022-12-25T20:11:36.967Z,7.00
2022-12-25T20:14:10.697Z,7.60
2022-12-25T20:16:38.992Z,9.27
2022-12-25T20:19:09.829Z,8.43
2022-12-25T20:21:39.175Z,7.57
2022-12-25T20:24:09.169Z,8.00
2022-12-25T20:26:36.215Z,7.70
2022-12-25T20:29:03.967Z,7.00
2022-12-25T20:31:35.808Z,7.87
2022-12-25T20:34:11.501Z,7.57
2022-12-25T20:36:41.039Z,7.90
2022-12-25T20:39:12.787Z,7.60
2022-12-25T20:41:42.617Z,6.97
2022-12-25T20:44:10.246Z,7.77
2022-12-25T20:46:37.867Z,7.60
2022-12-25T20:49:06.861Z,7.63
2022-12-25T20:51:34.138Z,7.20
2022-12-25T20:54:06.353Z,8.13
2022-12-25T20:56:33.639Z,8.37
2022-12-25T20:59:01.153Z,9.43
2022-12-25T21:01:30.680Z,8.00
2022-12-25T21:04:00.218Z,8.40
2022-12-25T21:06:27.283Z,10.13
2022-12-25T21:08:57.178Z,8.83
2022-12-25T21:11:24.114Z,10.50
2022-12-25T21:13:51.173Z,9.43
2022-12-25T21:16:23.241Z,10.97
2022-12-25T21:18:53.156Z,9.80
2022-12-25T21:21:22.846Z,10.20
2022-12-25T21:23:49.994Z,9.50
2022-12-25T21:26:22.722Z,9.97
2022-12-25T21:28:52.991Z,10.57
2022-12-25T21:31:22.467Z,10.07
2022-12-25T21:33:53.441Z,10.33
2022-12-25T21:36:23.545Z,10.43
2022-12-25T21:39:03.851Z,9.77
2022-12-25T21:41:43.527Z,10.77
2022-12-25T21:44:11.333Z,9.90
2022-12-25T21:46:38.267Z,9.97
2022-12-25T21:49:07.455Z,11.40
2022-12-25T21:51:55.682Z,11.50
2022-12-25T21:54:23.538Z,12.10
2022-12-25T21:56:50.837Z,14.03
2022-12-25T21:59:20.879Z,12.47
2022-12-25T22:01:51.914Z,12.70
2022-12-25T22:04:24.176Z,13.70
2022-12-25T22:07:12.911Z,12.47
2022-12-25T22:09:42.023Z,13.97
2022-12-25T22:12:34.004Z,12.20
2022-12-25T22:15:06.275Z,12.50
2022-12-25T22:17:59.385Z,13.30
2022-12-25T22:20:30.763Z,13.37
2022-12-25T22:23:00.412Z,12.23
2022-12-25T22:25:27.643Z,12.10
2022-12-25T22:27:55.064Z,11.90
2022-12-25T22:30:27.156Z,12.10
2022-12-25T22:32:56.962Z,14.93
2022-12-25T22:35:24.512Z,12.03
2022-12-25T22:37:54.232Z,12.97
2022-12-25T22:40:22.879Z,14.80
2022-12-25T22:42:50.691Z,13.60
2022-12-25T22:45:20.112Z,12.77
2022-12-25T22:47:47.085Z,13.60
2022-12-25T22:50:15.046Z,12.80
2022-12-25T22:52:45.712Z,13.40
2022-12-25T22:55:16.241Z,12.43
2022-12-25T22:57:43.065Z,13.90
2022-12-25T23:00:13.476Z,13.37
2022-12-25T23:02:40.624Z,14.97
2022-12-25T23:05:09.906Z,12.37
2022-12-25T23:07:40.390Z,14.00
2022-12-25T23:10:08.501Z,14.20
2022-12-25T23:12:56.337Z,14.80
2022-12-25T23:15:27.532Z,13.90
2022-12-25T23:18:13.655Z,12.97
2022-12-25T23:20:58.890Z,14.03
2022-12-25T23:23:44.590Z,13.40
2022-12-25T23:26:14.537Z,11.90
2022-12-25T23:29:03.359Z,13.23
2022-12-25T23:31:38.089Z,13.07
2022-12-25T23:34:06.864Z,12.83
2022-12-25T23:36:34.444Z,13.17
2022-12-25T23:39:09.972Z,12.60
2022-12-25T23:41:39.741Z,11.90
2022-12-25T23:44:10.555Z,12.07
2022-12-25T23:46:40.401Z,12.80
2022-12-25T23:49:08.888Z,12.97
2022-12-25T23:51:43.053Z,13.30
2022-12-25T23:54:16.326Z,13.23
2022-12-25T23:56:44.402Z,13.30
2022-12-25T23:59:12.396Z,12.40
